sensor_id;sensor_type;location;lat;lon;timestamp;temperature;humidity
16408;DHT22;8313;49.894;8.084;2023-07-29T00:01:33;20.20;99.90
16408;DHT22;8313;49.894;8.084;2023-07-29T00:03:59;20.10;99.90
16408;DHT22;8313;49.894;8.084;2023-07-29T00:06:24;20.10;99.90
16408;DHT22;8313;49.894;8.084;2023-07-29T00:08:50;20.10;99.90
16408;DHT22;8313;49.894;8.084;2023-07-29T00:11:16;20.10;99.90
16408;DHT22;8313;49.894;8.084;2023-07-29T00:13:41;20.10;99.90
16408;DHT22;8313;49.894;8.084;2023-07-29T00:16:07;20.10;99.90
16408;DHT22;8313;49.894;8.084;2023-07-29T00:18:33;20.10;99.90
16408;DHT22;8313;49.894;8.084;2023-07-29T00:20:58;20.00;99.90
16408;DHT22;8313;49.894;8.084;2023-07-29T00:23:24;20.00;99.90
16408;DHT22;8313;49.894;8.084;2023-07-29T00:25:50;20.00;99.90
16408;DHT22;8313;49.894;8.084;2023-07-29T00:28:15;20.00;99.90
16408;DHT22;8313;49.894;8.084;2023-07-29T00:30:41;20.00;99.90
16408;DHT22;8313;49.894;8.084;2023-07-29T00:33:07;20.00;99.90
16408;DHT22;8313;49.894;8.084;2023-07-29T00:35:33;20.00;99.90
16408;DHT22;8313;49.894;8.084;2023-07-29T00:37:59;20.00;99.90
16408;DHT22;8313;49.894;8.084;2023-07-29T00:40:28;20.00;99.90
16408;DHT22;8313;49.894;8.084;2023-07-29T00:42:54;20.00;99.90
16408;DHT22;8313;49.894;8.084;2023-07-29T00:45:20;20.00;99.90
16408;DHT22;8313;49.894;8.084;2023-07-29T00:47:46;19.90;99.90
16408;DHT22;8313;49.894;8.084;2023-07-29T00:50:13;19.80;99.90
16408;DHT22;8313;49.894;8.084;2023-07-29T00:52:38;19.80;99.90
16408;DHT22;8313;49.894;8.084;2023-07-29T00:55:05;19.80;99.90
16408;DHT22;8313;49.894;8.084;2023-07-29T00:57:32;19.80;99.90
16408;DHT22;8313;49.894;8.084;2023-07-29T00:59:59;19.90;99.90
16408;DHT22;8313;49.894;8.084;2023-07-29T01:02:26;19.90;99.90
16408;DHT22;8313;49.894;8.084;2023-07-29T01:04:54;19.90;99.90
16408;DHT22;8313;49.894;8.084;2023-07-29T01:07:54;19.90;99.90
16408;DHT22;8313;49.894;8.084;2023-07-29T01:13:03;19.80;99.90
16408;DHT22;8313;49.894;8.084;2023-07-29T01:15:36;19.80;99.90
16408;DHT22;8313;49.894;8.084;2023-07-29T01:18:13;19.80;99.90
16408;DHT22;8313;49.894;8.084;2023-07-29T01:20:40;19.80;99.90
16408;DHT22;8313;49.894;8.084;2023-07-29T01:23:08;19.80;99.90
16408;DHT22;8313;49.894;8.084;2023-07-29T01:25:34;19.80;99.90
16408;DHT22;8313;49.894;8.084;2023-07-29T01:28:00;19.80;99.90
16408;DHT22;8313;49.894;8.084;2023-07-29T01:30:36;19.80;99.90
16408;DHT22;8313;49.894;8.084;2023-07-29T01:35:41;19.80;99.90
16408;DHT22;8313;49.894;8.084;2023-07-29T01:38:17;19.80;99.90
16408;DHT22;8313;49.894;8.084;2023-07-29T01:40:44;19.80;99.90
16408;DHT22;8313;49.894;8.084;2023-07-29T01:43:11;19.80;99.90
16408;DHT22;8313;49.894;8.084;2023-07-29T01:45:37;19.80;99.90
16408;DHT22;8313;49.894;8.084;2023-07-29T01:48:07;19.80;99.90
16408;DHT22;8313;49.894;8.084;2023-07-29T01:50:34;19.80;99.90
16408;DHT22;8313;49.894;8.084;2023-07-29T01:53:00;19.80;99.90
16408;DHT22;8313;49.894;8.084;2023-07-29T01:55:26;19.70;99.90
16408;DHT22;8313;49.894;8.084;2023-07-29T01:57:53;19.60;99.90
16408;DHT22;8313;49.894;8.084;2023-07-29T02:00:19;19.60;99.90
16408;DHT22;8313;49.894;8.084;2023-07-29T02:02:45;19.70;99.90
16408;DHT22;8313;49.894;8.084;2023-07-29T02:05:11;19.70;99.90
16408;DHT22;8313;49.894;8.084;2023-07-29T02:07:37;19.60;99.90
16408;DHT22;8313;49.894;8.084;2023-07-29T02:10:02;19.60;99.90
16408;DHT22;8313;49.894;8.084;2023-07-29T02:12:28;19.60;99.90
16408;DHT22;8313;49.894;8.084;2023-07-29T02:14:54;19.60;99.90
16408;DHT22;8313;49.894;8.084;2023-07-29T02:17:20;19.60;99.90
16408;DHT22;8313;49.894;8.084;2023-07-29T02:19:46;19.70;99.90
16408;DHT22;8313;49.894;8.084;2023-07-29T02:22:14;19.70;99.90
16408;DHT22;8313;49.894;8.084;2023-07-29T02:24:40;19.70;99.90
16408;DHT22;8313;49.894;8.084;2023-07-29T02:27:06;19.70;99.90
16408;DHT22;8313;49.894;8.084;2023-07-29T02:29:32;19.70;99.90
16408;DHT22;8313;49.894;8.084;2023-07-29T02:31:59;19.70;99.90
16408;DHT22;8313;49.894;8.084;2023-07-29T02:34:25;19.80;99.90
16408;DHT22;8313;49.894;8.084;2023-07-29T02:36:51;19.70;99.90
16408;DHT22;8313;49.894;8.084;2023-07-29T02:39:16;19.70;99.90
16408;DHT22;8313;49.894;8.084;2023-07-29T02:41:42;19.70;99.90
16408;DHT22;8313;49.894;8.084;2023-07-29T02:44:08;19.80;99.90
16408;DHT22;8313;49.894;8.084;2023-07-29T02:46:34;19.80;99.90
16408;DHT22;8313;49.894;8.084;2023-07-29T02:49:01;19.80;99.90
16408;DHT22;8313;49.894;8.084;2023-07-29T02:51:26;19.70;99.90
16408;DHT22;8313;49.894;8.084;2023-07-29T02:53:52;19.70;99.90
16408;DHT22;8313;49.894;8.084;2023-07-29T02:56:18;19.70;99.90
16408;DHT22;8313;49.894;8.084;2023-07-29T02:58:44;19.70;99.90
16408;DHT22;8313;49.894;8.084;2023-07-29T03:01:10;19.70;99.90
16408;DHT22;8313;49.894;8.084;2023-07-29T03:03:37;19.70;99.90
16408;DHT22;8313;49.894;8.084;2023-07-29T03:06:08;19.60;99.90
16408;DHT22;8313;49.894;8.084;2023-07-29T03:08:34;19.60;99.90
16408;DHT22;8313;49.894;8.084;2023-07-29T03:11:11;19.60;99.90
16408;DHT22;8313;49.894;8.084;2023-07-29T03:13:37;19.60;99.90
16408;DHT22;8313;49.894;8.084;2023-07-29T03:16:13;19.60;99.90
16408;DHT22;8313;49.894;8.084;2023-07-29T03:18:44;19.60;99.90
16408;DHT22;8313;49.894;8.084;2023-07-29T03:21:11;19.60;99.90
16408;DHT22;8313;49.894;8.084;2023-07-29T03:23:37;19.50;99.90
16408;DHT22;8313;49.894;8.084;2023-07-29T03:26:03;19.40;99.90
16408;DHT22;8313;49.894;8.084;2023-07-29T03:28:42;19.40;99.90
16408;DHT22;8313;49.894;8.084;2023-07-29T03:31:08;19.40;99.90
16408;DHT22;8313;49.894;8.084;2023-07-29T03:33:34;19.30;99.90
16408;DHT22;8313;49.894;8.084;2023-07-29T03:36:00;19.30;99.90
16408;DHT22;8313;49.894;8.084;2023-07-29T03:38:25;19.30;99.90
16408;DHT22;8313;49.894;8.084;2023-07-29T03:40:51;19.30;99.90
16408;DHT22;8313;49.894;8.084;2023-07-29T03:43:19;19.40;99.90
16408;DHT22;8313;49.894;8.084;2023-07-29T03:45:44;19.40;99.90
16408;DHT22;8313;49.894;8.084;2023-07-29T03:48:10;19.40;99.90
16408;DHT22;8313;49.894;8.084;2023-07-29T03:50:36;19.40;99.90
16408;DHT22;8313;49.894;8.084;2023-07-29T03:53:05;19.40;99.90
16408;DHT22;8313;49.894;8.084;2023-07-29T03:55:31;19.40;99.90
16408;DHT22;8313;49.894;8.084;2023-07-29T03:57:58;19.40;99.90
16408;DHT22;8313;49.894;8.084;2023-07-29T04:00:24;19.40;99.90
16408;DHT22;8313;49.894;8.084;2023-07-29T04:02:49;19.40;99.90
16408;DHT22;8313;49.894;8.084;2023-07-29T04:05:16;19.40;99.90
16408;DHT22;8313;49.894;8.084;2023-07-29T04:07:41;19.50;99.90
16408;DHT22;8313;49.894;8.084;2023-07-29T04:10:07;19.50;99.90
16408;DHT22;8313;49.894;8.084;2023-07-29T04:12:33;19.40;99.90
16408;DHT22;8313;49.894;8.084;2023-07-29T04:14:59;19.40;99.90
16408;DHT22;8313;49.894;8.084;2023-07-29T04:17:25;19.40;99.90
16408;DHT22;8313;49.894;8.084;2023-07-29T04:19:50;19.40;99.90
16408;DHT22;8313;49.894;8.084;2023-07-29T04:22:18;19.40;99.90
16408;DHT22;8313;49.894;8.084;2023-07-29T04:24:44;19.40;99.90
16408;DHT22;8313;49.894;8.084;2023-07-29T04:27:09;19.40;99.90
16408;DHT22;8313;49.894;8.084;2023-07-29T04:29:35;19.40;99.90
16408;DHT22;8313;49.894;8.084;2023-07-29T04:32:05;19.40;99.90
16408;DHT22;8313;49.894;8.084;2023-07-29T04:34:31;19.30;99.90
16408;DHT22;8313;49.894;8.084;2023-07-29T04:36:57;19.40;99.90
16408;DHT22;8313;49.894;8.084;2023-07-29T04:39:23;19.40;99.90
16408;DHT22;8313;49.894;8.084;2023-07-29T04:41:48;19.40;99.90
16408;DHT22;8313;49.894;8.084;2023-07-29T04:44:14;19.30;99.90
16408;DHT22;8313;49.894;8.084;2023-07-29T04:46:40;19.30;99.90
16408;DHT22;8313;49.894;8.084;2023-07-29T04:49:06;19.30;99.90
16408;DHT22;8313;49.894;8.084;2023-07-29T04:51:32;19.30;99.90
16408;DHT22;8313;49.894;8.084;2023-07-29T04:53:58;19.30;99.90
16408;DHT22;8313;49.894;8.084;2023-07-29T04:56:24;19.30;99.90
16408;DHT22;8313;49.894;8.084;2023-07-29T04:58:49;19.30;99.90
16408;DHT22;8313;49.894;8.084;2023-07-29T05:01:15;19.30;99.90
16408;DHT22;8313;49.894;8.084;2023-07-29T05:03:41;19.30;99.90
16408;DHT22;8313;49.894;8.084;2023-07-29T05:06:07;19.30;99.90
16408;DHT22;8313;49.894;8.084;2023-07-29T05:08:32;19.30;99.90
16408;DHT22;8313;49.894;8.084;2023-07-29T05:10:58;19.40;99.90
16408;DHT22;8313;49.894;8.084;2023-07-29T05:13:24;19.40;99.90
16408;DHT22;8313;49.894;8.084;2023-07-29T05:15:50;19.40;99.90
16408;DHT22;8313;49.894;8.084;2023-07-29T05:18:17;19.50;99.90
16408;DHT22;8313;49.894;8.084;2023-07-29T05:20:42;19.50;99.90
16408;DHT22;8313;49.894;8.084;2023-07-29T05:23:09;19.50;99.90
16408;DHT22;8313;49.894;8.084;2023-07-29T05:25:34;19.50;99.90
16408;DHT22;8313;49.894;8.084;2023-07-29T05:28:01;19.50;99.90
16408;DHT22;8313;49.894;8.084;2023-07-29T05:30:27;19.50;99.90
16408;DHT22;8313;49.894;8.084;2023-07-29T05:32:59;19.50;99.90
16408;DHT22;8313;49.894;8.084;2023-07-29T05:35:25;19.50;99.90
16408;DHT22;8313;49.894;8.084;2023-07-29T05:37:51;19.50;99.90
16408;DHT22;8313;49.894;8.084;2023-07-29T05:40:16;19.40;99.90
16408;DHT22;8313;49.894;8.084;2023-07-29T05:42:43;19.40;99.90
16408;DHT22;8313;49.894;8.084;2023-07-29T05:45:10;19.40;99.90
16408;DHT22;8313;49.894;8.084;2023-07-29T05:47:37;19.30;99.90
16408;DHT22;8313;49.894;8.084;2023-07-29T05:50:03;19.30;99.90
16408;DHT22;8313;49.894;8.084;2023-07-29T05:52:33;19.30;99.90
16408;DHT22;8313;49.894;8.084;2023-07-29T05:54:59;19.30;99.90
16408;DHT22;8313;49.894;8.084;2023-07-29T05:57:25;19.30;99.90
16408;DHT22;8313;49.894;8.084;2023-07-29T05:59:50;19.40;99.90
16408;DHT22;8313;49.894;8.084;2023-07-29T06:02:16;19.40;99.90
16408;DHT22;8313;49.894;8.084;2023-07-29T06:04:42;19.40;99.90
16408;DHT22;8313;49.894;8.084;2023-07-29T06:07:07;19.40;99.90
16408;DHT22;8313;49.894;8.084;2023-07-29T06:09:34;19.40;99.90
16408;DHT22;8313;49.894;8.084;2023-07-29T06:11:59;19.50;99.90
16408;DHT22;8313;49.894;8.084;2023-07-29T06:14:25;19.50;99.90
16408;DHT22;8313;49.894;8.084;2023-07-29T06:16:51;19.50;99.90
16408;DHT22;8313;49.894;8.084;2023-07-29T06:19:18;19.50;99.90
16408;DHT22;8313;49.894;8.084;2023-07-29T06:21:43;19.60;99.90
16408;DHT22;8313;49.894;8.084;2023-07-29T06:24:09;19.60;99.90
16408;DHT22;8313;49.894;8.084;2023-07-29T06:26:35;19.60;99.90
16408;DHT22;8313;49.894;8.084;2023-07-29T06:29:00;19.60;99.90
16408;DHT22;8313;49.894;8.084;2023-07-29T06:31:26;19.50;99.90
16408;DHT22;8313;49.894;8.084;2023-07-29T06:33:51;19.50;99.90
16408;DHT22;8313;49.894;8.084;2023-07-29T06:36:17;19.50;99.90
16408;DHT22;8313;49.894;8.084;2023-07-29T06:38:43;19.50;99.90
16408;DHT22;8313;49.894;8.084;2023-07-29T06:41:09;19.40;99.90
16408;DHT22;8313;49.894;8.084;2023-07-29T06:43:34;19.40;99.90
16408;DHT22;8313;49.894;8.084;2023-07-29T06:46:00;19.60;99.90
16408;DHT22;8313;49.894;8.084;2023-07-29T06:48:25;19.60;99.90
16408;DHT22;8313;49.894;8.084;2023-07-29T06:50:51;19.50;99.90
16408;DHT22;8313;49.894;8.084;2023-07-29T06:53:17;19.50;99.90
16408;DHT22;8313;49.894;8.084;2023-07-29T06:55:43;19.50;99.90
16408;DHT22;8313;49.894;8.084;2023-07-29T06:58:10;19.40;99.90
16408;DHT22;8313;49.894;8.084;2023-07-29T07:00:35;19.40;99.90
16408;DHT22;8313;49.894;8.084;2023-07-29T07:03:01;19.40;99.90
16408;DHT22;8313;49.894;8.084;2023-07-29T07:05:27;19.40;99.90
16408;DHT22;8313;49.894;8.084;2023-07-29T07:07:52;19.50;99.90
16408;DHT22;8313;49.894;8.084;2023-07-29T07:10:18;19.50;99.90
16408;DHT22;8313;49.894;8.084;2023-07-29T07:12:44;19.50;99.90
16408;DHT22;8313;49.894;8.084;2023-07-29T07:15:10;19.60;99.90
16408;DHT22;8313;49.894;8.084;2023-07-29T07:17:35;19.50;99.90
16408;DHT22;8313;49.894;8.084;2023-07-29T07:20:01;19.50;99.90
16408;DHT22;8313;49.894;8.084;2023-07-29T07:22:27;19.50;99.90
16408;DHT22;8313;49.894;8.084;2023-07-29T07:24:52;19.50;99.90
16408;DHT22;8313;49.894;8.084;2023-07-29T07:27:18;19.60;99.90
16408;DHT22;8313;49.894;8.084;2023-07-29T07:29:44;19.60;99.90
16408;DHT22;8313;49.894;8.084;2023-07-29T07:32:10;19.70;99.90
16408;DHT22;8313;49.894;8.084;2023-07-29T07:34:35;19.70;99.90
16408;DHT22;8313;49.894;8.084;2023-07-29T07:37:01;19.80;99.90
16408;DHT22;8313;49.894;8.084;2023-07-29T07:39:27;19.80;99.90
16408;DHT22;8313;49.894;8.084;2023-07-29T07:41:52;19.70;99.90
16408;DHT22;8313;49.894;8.084;2023-07-29T07:44:18;19.80;99.90
16408;DHT22;8313;49.894;8.084;2023-07-29T07:46:45;19.80;99.90
16408;DHT22;8313;49.894;8.084;2023-07-29T07:49:11;19.80;99.90
16408;DHT22;8313;49.894;8.084;2023-07-29T07:51:38;19.80;99.90
16408;DHT22;8313;49.894;8.084;2023-07-29T07:54:04;19.80;99.90
16408;DHT22;8313;49.894;8.084;2023-07-29T07:56:30;19.80;99.90
16408;DHT22;8313;49.894;8.084;2023-07-29T07:58:56;19.90;99.90
16408;DHT22;8313;49.894;8.084;2023-07-29T08:01:21;20.00;99.90
16408;DHT22;8313;49.894;8.084;2023-07-29T08:03:47;20.00;99.90
16408;DHT22;8313;49.894;8.084;2023-07-29T08:06:13;20.00;99.90
16408;DHT22;8313;49.894;8.084;2023-07-29T08:08:38;20.00;99.90
16408;DHT22;8313;49.894;8.084;2023-07-29T08:11:04;20.10;99.90
16408;DHT22;8313;49.894;8.084;2023-07-29T08:13:30;20.10;99.90
16408;DHT22;8313;49.894;8.084;2023-07-29T08:15:56;20.20;99.90
16408;DHT22;8313;49.894;8.084;2023-07-29T08:18:21;20.20;99.90
16408;DHT22;8313;49.894;8.084;2023-07-29T08:20:57;20.30;99.90
16408;DHT22;8313;49.894;8.084;2023-07-29T08:23:24;20.30;99.90
16408;DHT22;8313;49.894;8.084;2023-07-29T08:25:54;20.30;99.90
16408;DHT22;8313;49.894;8.084;2023-07-29T08:28:22;20.30;99.90
16408;DHT22;8313;49.894;8.084;2023-07-29T08:30:48;20.40;99.90
16408;DHT22;8313;49.894;8.084;2023-07-29T08:33:14;20.40;99.90
16408;DHT22;8313;49.894;8.084;2023-07-29T08:35:40;20.50;99.90
16408;DHT22;8313;49.894;8.084;2023-07-29T08:38:06;20.50;99.90
16408;DHT22;8313;49.894;8.084;2023-07-29T08:40:32;20.60;99.90
16408;DHT22;8313;49.894;8.084;2023-07-29T08:43:05;20.70;99.90
16408;DHT22;8313;49.894;8.084;2023-07-29T08:45:34;20.70;99.90
16408;DHT22;8313;49.894;8.084;2023-07-29T08:48:02;20.80;99.90
16408;DHT22;8313;49.894;8.084;2023-07-29T08:50:28;20.90;99.90
16408;DHT22;8313;49.894;8.084;2023-07-29T08:52:56;21.00;99.90
16408;DHT22;8313;49.894;8.084;2023-07-29T08:55:22;21.10;99.90
16408;DHT22;8313;49.894;8.084;2023-07-29T08:57:47;21.10;99.90
16408;DHT22;8313;49.894;8.084;2023-07-29T09:00:13;21.20;99.90
16408;DHT22;8313;49.894;8.084;2023-07-29T09:02:39;21.20;99.90
16408;DHT22;8313;49.894;8.084;2023-07-29T09:05:05;21.10;99.90
16408;DHT22;8313;49.894;8.084;2023-07-29T09:07:34;21.10;99.90
16408;DHT22;8313;49.894;8.084;2023-07-29T09:09:59;21.10;99.90
16408;DHT22;8313;49.894;8.084;2023-07-29T09:12:25;21.10;99.90
16408;DHT22;8313;49.894;8.084;2023-07-29T09:14:54;21.00;99.90
16408;DHT22;8313;49.894;8.084;2023-07-29T09:17:22;21.00;99.90
16408;DHT22;8313;49.894;8.084;2023-07-29T09:19:51;21.10;99.90
16408;DHT22;8313;49.894;8.084;2023-07-29T09:22:18;21.10;99.90
16408;DHT22;8313;49.894;8.084;2023-07-29T09:24:45;21.20;99.90
16408;DHT22;8313;49.894;8.084;2023-07-29T09:27:26;21.30;99.90
16408;DHT22;8313;49.894;8.084;2023-07-29T09:29:53;21.50;99.90
16408;DHT22;8313;49.894;8.084;2023-07-29T09:32:23;21.70;99.90
16408;DHT22;8313;49.894;8.084;2023-07-29T09:34:49;21.80;99.90
16408;DHT22;8313;49.894;8.084;2023-07-29T09:37:16;21.90;99.90
16408;DHT22;8313;49.894;8.084;2023-07-29T09:39:45;22.00;99.90
16408;DHT22;8313;49.894;8.084;2023-07-29T09:42:20;22.20;99.90
16408;DHT22;8313;49.894;8.084;2023-07-29T09:44:48;22.20;99.90
16408;DHT22;8313;49.894;8.084;2023-07-29T09:47:24;22.30;99.90
16408;DHT22;8313;49.894;8.084;2023-07-29T09:49:51;22.40;99.90
16408;DHT22;8313;49.894;8.084;2023-07-29T09:52:18;22.50;99.90
16408;DHT22;8313;49.894;8.084;2023-07-29T09:54:45;22.50;99.90
16408;DHT22;8313;49.894;8.084;2023-07-29T09:57:13;22.60;99.90
16408;DHT22;8313;49.894;8.084;2023-07-29T09:59:39;22.80;99.90
16408;DHT22;8313;49.894;8.084;2023-07-29T10:02:05;22.90;99.90
16408;DHT22;8313;49.894;8.084;2023-07-29T10:04:34;23.00;99.90
16408;DHT22;8313;49.894;8.084;2023-07-29T10:07:01;23.30;99.90
16408;DHT22;8313;49.894;8.084;2023-07-29T10:09:27;23.40;99.90
16408;DHT22;8313;49.894;8.084;2023-07-29T10:11:54;23.50;99.90
16408;DHT22;8313;49.894;8.084;2023-07-29T10:14:20;23.50;99.90
16408;DHT22;8313;49.894;8.084;2023-07-29T10:16:47;23.60;99.90
16408;DHT22;8313;49.894;8.084;2023-07-29T10:19:13;23.70;99.90
16408;DHT22;8313;49.894;8.084;2023-07-29T10:21:44;23.70;99.90
16408;DHT22;8313;49.894;8.084;2023-07-29T10:24:15;23.70;99.90
16408;DHT22;8313;49.894;8.084;2023-07-29T10:26:42;23.80;99.90
16408;DHT22;8313;49.894;8.084;2023-07-29T10:29:12;23.80;99.90
16408;DHT22;8313;49.894;8.084;2023-07-29T10:31:40;23.90;99.90
16408;DHT22;8313;49.894;8.084;2023-07-29T10:34:08;24.20;99.90
16408;DHT22;8313;49.894;8.084;2023-07-29T10:36:34;24.30;99.90
16408;DHT22;8313;49.894;8.084;2023-07-29T10:39:00;24.40;99.90
16408;DHT22;8313;49.894;8.084;2023-07-29T10:47:12;24.90;99.90
16408;DHT22;8313;49.894;8.084;2023-07-29T10:49:50;25.00;99.90
16408;DHT22;8313;49.894;8.084;2023-07-29T10:52:29;25.00;99.90
16408;DHT22;8313;49.894;8.084;2023-07-29T10:54:55;25.10;99.90
16408;DHT22;8313;49.894;8.084;2023-07-29T10:57:32;25.10;99.90
16408;DHT22;8313;49.894;8.084;2023-07-29T10:59:58;25.20;99.90
16408;DHT22;8313;49.894;8.084;2023-07-29T11:02:37;25.40;99.90
16408;DHT22;8313;49.894;8.084;2023-07-29T11:05:16;25.30;99.90
16408;DHT22;8313;49.894;8.084;2023-07-29T11:07:49;25.20;99.90
16408;DHT22;8313;49.894;8.084;2023-07-29T11:10:15;25.30;99.90
16408;DHT22;8313;49.894;8.084;2023-07-29T11:12:42;25.50;99.90
16408;DHT22;8313;49.894;8.084;2023-07-29T11:20:19;25.60;99.90
16408;DHT22;8313;49.894;8.084;2023-07-29T11:22:46;25.60;99.90
16408;DHT22;8313;49.894;8.084;2023-07-29T11:25:13;25.60;99.90
16408;DHT22;8313;49.894;8.084;2023-07-29T11:27:39;25.50;99.90
16408;DHT22;8313;49.894;8.084;2023-07-29T11:30:07;25.40;99.90
16408;DHT22;8313;49.894;8.084;2023-07-29T11:32:34;25.40;99.90
16408;DHT22;8313;49.894;8.084;2023-07-29T11:35:13;25.30;99.90
16408;DHT22;8313;49.894;8.084;2023-07-29T11:37:41;25.40;99.90
16408;DHT22;8313;49.894;8.084;2023-07-29T11:40:08;25.60;99.90
16408;DHT22;8313;49.894;8.084;2023-07-29T11:42:37;25.90;99.90
16408;DHT22;8313;49.894;8.084;2023-07-29T11:45:03;25.90;99.90
16408;DHT22;8313;49.894;8.084;2023-07-29T11:47:31;25.80;99.90
16408;DHT22;8313;49.894;8.084;2023-07-29T11:49:59;25.80;99.90
16408;DHT22;8313;49.894;8.084;2023-07-29T11:52:28;25.80;99.90
16408;DHT22;8313;49.894;8.084;2023-07-29T11:54:54;25.50;99.90
16408;DHT22;8313;49.894;8.084;2023-07-29T11:57:20;25.30;99.90
16408;DHT22;8313;49.894;8.084;2023-07-29T11:59:47;25.30;99.90
16408;DHT22;8313;49.894;8.084;2023-07-29T12:02:17;25.40;99.90
16408;DHT22;8313;49.894;8.084;2023-07-29T12:04:44;25.50;99.90
16408;DHT22;8313;49.894;8.084;2023-07-29T12:07:12;25.60;99.90
16408;DHT22;8313;49.894;8.084;2023-07-29T12:09:39;25.70;99.90
16408;DHT22;8313;49.894;8.084;2023-07-29T12:12:06;25.80;99.90
16408;DHT22;8313;49.894;8.084;2023-07-29T12:14:32;25.90;99.90
16408;DHT22;8313;49.894;8.084;2023-07-29T12:17:05;26.00;99.90
16408;DHT22;8313;49.894;8.084;2023-07-29T12:19:32;26.10;99.90
16408;DHT22;8313;49.894;8.084;2023-07-29T12:22:00;26.30;99.90
16408;DHT22;8313;49.894;8.084;2023-07-29T12:24:25;26.30;99.90
16408;DHT22;8313;49.894;8.084;2023-07-29T12:26:51;26.30;99.90
16408;DHT22;8313;49.894;8.084;2023-07-29T12:29:19;26.50;99.90
16408;DHT22;8313;49.894;8.084;2023-07-29T12:31:46;26.50;99.90
16408;DHT22;8313;49.894;8.084;2023-07-29T12:34:19;26.50;99.90
16408;DHT22;8313;49.894;8.084;2023-07-29T12:36:49;26.50;99.90
16408;DHT22;8313;49.894;8.084;2023-07-29T12:39:20;26.70;99.90
16408;DHT22;8313;49.894;8.084;2023-07-29T12:41:51;26.70;99.90
16408;DHT22;8313;49.894;8.084;2023-07-29T12:44:17;26.80;99.90
16408;DHT22;8313;49.894;8.084;2023-07-29T12:46:43;26.70;99.90
16408;DHT22;8313;49.894;8.084;2023-07-29T12:49:09;26.80;99.90
16408;DHT22;8313;49.894;8.084;2023-07-29T12:51:35;27.00;99.90
16408;DHT22;8313;49.894;8.084;2023-07-29T12:54:02;26.90;99.90
16408;DHT22;8313;49.894;8.084;2023-07-29T12:56:28;27.00;99.90
16408;DHT22;8313;49.894;8.084;2023-07-29T12:58:59;27.10;99.90
16408;DHT22;8313;49.894;8.084;2023-07-29T13:01:26;27.00;99.90
16408;DHT22;8313;49.894;8.084;2023-07-29T13:03:52;26.90;99.90
16408;DHT22;8313;49.894;8.084;2023-07-29T13:06:17;27.00;99.90
16408;DHT22;8313;49.894;8.084;2023-07-29T13:08:44;27.00;99.90
16408;DHT22;8313;49.894;8.084;2023-07-29T13:11:10;27.00;99.90
16408;DHT22;8313;49.894;8.084;2023-07-29T13:13:36;26.90;99.90
16408;DHT22;8313;49.894;8.084;2023-07-29T13:16:02;26.90;99.90
16408;DHT22;8313;49.894;8.084;2023-07-29T13:18:29;26.90;99.90
16408;DHT22;8313;49.894;8.084;2023-07-29T13:20:55;26.90;99.90
16408;DHT22;8313;49.894;8.084;2023-07-29T13:23:21;27.10;99.90
16408;DHT22;8313;49.894;8.084;2023-07-29T13:25:47;27.10;99.90
16408;DHT22;8313;49.894;8.084;2023-07-29T13:28:13;27.10;99.90
16408;DHT22;8313;49.894;8.084;2023-07-29T13:30:39;27.20;99.90
16408;DHT22;8313;49.894;8.084;2023-07-29T13:33:06;27.10;99.90
16408;DHT22;8313;49.894;8.084;2023-07-29T13:35:32;27.10;99.90
16408;DHT22;8313;49.894;8.084;2023-07-29T13:37:58;27.20;99.90
16408;DHT22;8313;49.894;8.084;2023-07-29T13:40:23;27.10;99.90
16408;DHT22;8313;49.894;8.084;2023-07-29T13:42:49;27.20;99.90
16408;DHT22;8313;49.894;8.084;2023-07-29T13:45:15;27.30;99.90
16408;DHT22;8313;49.894;8.084;2023-07-29T13:47:40;27.40;99.90
16408;DHT22;8313;49.894;8.084;2023-07-29T13:50:07;27.30;99.90
16408;DHT22;8313;49.894;8.084;2023-07-29T13:52:36;27.40;99.90
16408;DHT22;8313;49.894;8.084;2023-07-29T13:55:03;27.40;99.90
16408;DHT22;8313;49.894;8.084;2023-07-29T13:57:29;27.50;99.90
16408;DHT22;8313;49.894;8.084;2023-07-29T13:59:55;27.50;99.90
16408;DHT22;8313;49.894;8.084;2023-07-29T14:02:20;27.60;99.90
16408;DHT22;8313;49.894;8.084;2023-07-29T14:04:46;27.50;99.90
16408;DHT22;8313;49.894;8.084;2023-07-29T14:07:11;27.60;99.90
16408;DHT22;8313;49.894;8.084;2023-07-29T14:09:37;27.80;99.90
16408;DHT22;8313;49.894;8.084;2023-07-29T14:12:04;27.90;99.90
16408;DHT22;8313;49.894;8.084;2023-07-29T14:14:30;27.80;99.90
16408;DHT22;8313;49.894;8.084;2023-07-29T14:16:56;27.90;99.90
16408;DHT22;8313;49.894;8.084;2023-07-29T14:19:22;27.90;99.90
16408;DHT22;8313;49.894;8.084;2023-07-29T14:21:48;27.80;99.90
16408;DHT22;8313;49.894;8.084;2023-07-29T14:24:14;27.80;99.90
16408;DHT22;8313;49.894;8.084;2023-07-29T14:26:41;27.80;99.90
16408;DHT22;8313;49.894;8.084;2023-07-29T14:29:07;27.70;99.90
16408;DHT22;8313;49.894;8.084;2023-07-29T14:31:32;27.50;99.90
16408;DHT22;8313;49.894;8.084;2023-07-29T14:33:58;27.40;99.90
16408;DHT22;8313;49.894;8.084;2023-07-29T14:36:25;27.30;99.90
16408;DHT22;8313;49.894;8.084;2023-07-29T14:38:51;27.20;99.90
16408;DHT22;8313;49.894;8.084;2023-07-29T14:41:17;27.00;99.90
16408;DHT22;8313;49.894;8.084;2023-07-29T14:43:43;27.00;99.90
16408;DHT22;8313;49.894;8.084;2023-07-29T14:46:08;27.00;99.90
16408;DHT22;8313;49.894;8.084;2023-07-29T14:48:34;26.90;99.90
16408;DHT22;8313;49.894;8.084;2023-07-29T14:51:00;26.90;99.90
16408;DHT22;8313;49.894;8.084;2023-07-29T14:53:25;27.00;99.90
16408;DHT22;8313;49.894;8.084;2023-07-29T14:55:51;27.20;99.90
16408;DHT22;8313;49.894;8.084;2023-07-29T14:58:17;27.30;99.90
16408;DHT22;8313;49.894;8.084;2023-07-29T15:00:42;27.20;99.90
16408;DHT22;8313;49.894;8.084;2023-07-29T15:03:08;27.20;99.90
16408;DHT22;8313;49.894;8.084;2023-07-29T15:05:34;27.00;99.90
16408;DHT22;8313;49.894;8.084;2023-07-29T15:07:59;27.00;99.90
16408;DHT22;8313;49.894;8.084;2023-07-29T15:10:25;27.00;99.90
16408;DHT22;8313;49.894;8.084;2023-07-29T15:12:51;27.00;99.90
16408;DHT22;8313;49.894;8.084;2023-07-29T15:15:17;27.00;99.90
16408;DHT22;8313;49.894;8.084;2023-07-29T15:17:43;27.00;99.90
16408;DHT22;8313;49.894;8.084;2023-07-29T15:20:09;27.00;99.90
16408;DHT22;8313;49.894;8.084;2023-07-29T15:22:34;27.00;99.90
16408;DHT22;8313;49.894;8.084;2023-07-29T15:25:00;27.00;99.90
16408;DHT22;8313;49.894;8.084;2023-07-29T15:27:30;26.90;99.90
16408;DHT22;8313;49.894;8.084;2023-07-29T15:29:56;26.70;99.90
16408;DHT22;8313;49.894;8.084;2023-07-29T15:32:22;26.70;99.90
16408;DHT22;8313;49.894;8.084;2023-07-29T15:34:48;26.80;99.90
16408;DHT22;8313;49.894;8.084;2023-07-29T15:37:15;26.80;99.90
16408;DHT22;8313;49.894;8.084;2023-07-29T15:39:41;26.90;99.90
16408;DHT22;8313;49.894;8.084;2023-07-29T15:42:07;27.00;99.90
16408;DHT22;8313;49.894;8.084;2023-07-29T15:44:32;26.90;99.90
16408;DHT22;8313;49.894;8.084;2023-07-29T15:46:58;26.90;99.90
16408;DHT22;8313;49.894;8.084;2023-07-29T15:49:24;26.80;99.90
16408;DHT22;8313;49.894;8.084;2023-07-29T15:51:50;26.90;99.90
16408;DHT22;8313;49.894;8.084;2023-07-29T15:54:17;27.00;99.90
16408;DHT22;8313;49.894;8.084;2023-07-29T15:56:42;27.00;99.90
16408;DHT22;8313;49.894;8.084;2023-07-29T15:59:08;27.00;99.40